createdAt,value
2023-01-02T00:00:57.094Z,10.40
2023-01-02T00:03:24.151Z,10.50
2023-01-02T00:05:51.177Z,10.50
2023-01-02T00:08:18.887Z,10.50
2023-01-02T00:10:45.832Z,10.50
2023-01-02T00:13:12.839Z,10.60
2023-01-02T00:15:39.848Z,10.60
2023-01-02T00:18:06.734Z,10.60
2023-01-02T00:20:33.748Z,10.60
2023-01-02T00:23:00.653Z,10.60
2023-01-02T00:25:27.884Z,10.70
2023-01-02T00:27:58.821Z,10.70
2023-01-02T00:30:25.755Z,10.70
2023-01-02T00:32:52.653Z,10.80
2023-01-02T00:35:19.537Z,10.70
2023-01-02T00:37:46.542Z,10.80
2023-01-02T00:40:14.158Z,10.80
2023-01-02T00:42:42.004Z,10.80
2023-01-02T00:45:10.621Z,10.80
2023-01-02T00:47:37.583Z,10.80
2023-01-02T00:50:05.360Z,10.80
2023-01-02T00:52:32.270Z,10.80
2023-01-02T00:54:59.149Z,10.80
2023-01-02T00:57:26.201Z,10.80
2023-01-02T00:59:53.581Z,10.80
2023-01-02T01:02:20.567Z,10.80
2023-01-02T01:04:47.897Z,10.80
2023-01-02T01:07:15.275Z,10.80
2023-01-02T01:09:42.212Z,10.80
2023-01-02T01:12:09.520Z,10.80
2023-01-02T01:14:36.490Z,10.80
2023-01-02T01:17:03.492Z,10.80
2023-01-02T01:19:31.749Z,10.80
2023-01-02T01:21:58.864Z,10.80
2023-01-02T01:24:25.863Z,10.80
2023-01-02T01:26:52.793Z,10.80
2023-01-02T01:29:19.823Z,10.80
2023-01-02T01:31:46.821Z,10.80
2023-01-02T01:34:13.968Z,10.80
2023-01-02T01:36:40.873Z,10.80
2023-01-02T01:39:07.782Z,10.70
2023-01-02T01:41:34.859Z,10.80
2023-01-02T01:44:03.236Z,10.70
2023-01-02T01:46:43.147Z,10.70
2023-01-02T01:49:16.233Z,10.70
2023-01-02T01:52:02.608Z,10.70
2023-01-02T01:54:32.613Z,10.80
2023-01-02T01:57:03.545Z,10.70
2023-01-02T01:59:30.460Z,10.80
2023-01-02T02:04:26.903Z,10.80
2023-01-02T02:06:53.861Z,10.80
2023-01-02T02:09:44.422Z,10.80
2023-01-02T02:12:11.795Z,10.80
2023-01-02T02:14:38.687Z,10.80
2023-01-02T02:17:23.161Z,10.80
2023-01-02T02:19:59.029Z,10.80
2023-01-02T02:22:45.058Z,10.80
2023-01-02T02:25:28.507Z,10.90
2023-01-02T02:27:55.291Z,10.90
2023-01-02T02:30:24.120Z,10.90
2023-01-02T02:33:26.056Z,10.90
2023-01-02T02:36:08.270Z,10.90
2023-01-02T02:39:22.728Z,10.90
2023-01-02T02:42:14.416Z,10.90
2023-01-02T02:45:02.605Z,11.00
2023-01-02T02:47:49.494Z,11.00
2023-01-02T02:50:52.219Z,11.00
2023-01-02T02:53:22.737Z,11.00
2023-01-02T02:55:52.214Z,11.00
2023-01-02T02:58:19.433Z,11.00
2023-01-02T03:00:46.442Z,11.00
2023-01-02T03:03:22.111Z,11.00
2023-01-02T03:06:02.894Z,11.00
2023-01-02T03:08:37.041Z,10.90
2023-01-02T03:11:03.960Z,10.90
2023-01-02T03:13:59.712Z,10.90
2023-01-02T03:16:43.733Z,11.00
2023-01-02T03:19:15.093Z,10.90
2023-01-02T03:21:46.030Z,10.90
2023-01-02T03:24:16.257Z,10.90
2023-01-02T03:26:45.533Z,10.90
2023-01-02T03:29:21.619Z,10.90
2023-01-02T03:31:50.778Z,10.90
2023-01-02T03:34:19.826Z,11.00
2023-01-02T03:36:48.731Z,10.90
2023-01-02T03:39:17.772Z,11.00
2023-01-02T03:41:54.063Z,11.00
2023-01-02T03:44:21.773Z,11.00
2023-01-02T03:46:59.739Z,11.00
2023-01-02T03:49:32.413Z,11.00
2023-01-02T03:51:59.384Z,11.00
2023-01-02T03:54:26.401Z,11.00
2023-01-02T03:56:56.216Z,11.00
2023-01-02T03:59:44.752Z,11.00
2023-01-02T04:02:36.472Z,11.00
2023-01-02T04:05:29.087Z,11.10
2023-01-02T04:08:08.032Z,11.10
2023-01-02T04:10:35.916Z,11.10
2023-01-02T04:13:05.479Z,11.10
2023-01-02T04:15:33.693Z,11.10
2023-01-02T04:18:02.847Z,11.10
2023-01-02T04:20:32.311Z,11.10
2023-01-02T04:23:27.548Z,11.20
2023-01-02T04:25:57.517Z,11.20
2023-01-02T04:28:29.238Z,11.20
2023-01-02T04:31:00.724Z,11.20
2023-01-02T04:33:27.679Z,11.30
2023-01-02T04:35:54.673Z,11.30
2023-01-02T04:38:24.349Z,11.30
2023-01-02T04:40:51.695Z,11.40
2023-01-02T04:43:20.744Z,11.40
2023-01-02T06:04:19.479Z,11.50
2023-01-02T06:06:47.302Z,11.60
2023-01-02T06:09:15.739Z,11.40
2023-01-02T06:11:45.467Z,11.10
2023-01-02T06:14:15.225Z,10.80
2023-01-02T06:16:42.600Z,10.70
2023-01-02T06:19:09.621Z,10.60
2023-01-02T06:21:36.599Z,10.40
2023-01-02T06:24:03.665Z,10.30
2023-01-02T06:26:35.222Z,10.20
2023-01-02T06:29:03.262Z,10.20
2023-01-02T06:31:30.457Z,10.10
2023-01-02T06:33:59.388Z,10.00
2023-01-02T06:36:29.585Z,10.00
2023-01-02T06:38:57.261Z,10.00
2023-01-02T06:41:24.414Z,10.00
2023-01-02T06:43:52.491Z,10.00
2023-01-02T06:46:22.258Z,9.80
2023-01-02T06:48:49.393Z,9.80
2023-01-02T06:51:20.917Z,9.80
2023-01-02T06:53:48.172Z,9.80
2023-01-02T06:56:17.977Z,9.80
2023-01-02T06:58:44.965Z,9.70
2023-01-02T07:01:21.206Z,9.80
2023-01-02T07:03:48.649Z,9.70
2023-01-02T07:06:19.286Z,9.60
2023-01-02T07:08:46.580Z,9.70
2023-01-02T07:11:14.461Z,9.50
2023-01-02T07:13:42.394Z,9.60
2023-01-02T07:16:10.822Z,9.50
2023-01-02T07:18:37.985Z,9.50
2023-01-02T07:21:06.412Z,9.50
2023-01-02T07:23:33.370Z,9.50
2023-01-02T07:26:02.203Z,9.40
2023-01-02T07:28:29.941Z,9.30
2023-01-02T07:31:02.907Z,9.40
2023-01-02T07:33:30.231Z,9.20
2023-01-02T07:35:58.794Z,9.30
2023-01-02T07:38:25.843Z,9.30
2023-01-02T07:40:52.807Z,9.20
2023-01-02T07:43:20.684Z,9.20
2023-01-02T07:45:50.405Z,9.00
2023-01-02T07:48:18.046Z,9.10
2023-01-02T07:50:45.487Z,9.00
2023-01-02T07:53:14.657Z,9.00
2023-01-02T07:55:41.770Z,9.00
2023-01-02T07:58:08.693Z,9.00
2023-01-02T08:00:35.629Z,9.00
2023-01-02T08:03:02.871Z,8.90
2023-01-02T08:05:29.799Z,8.70
2023-01-02T08:07:56.697Z,8.70
2023-01-02T08:10:23.684Z,8.80
2023-01-02T08:12:50.700Z,8.80
2023-01-02T08:15:17.667Z,8.80
2023-01-02T08:17:44.582Z,8.80
2023-01-02T08:20:11.921Z,8.80
2023-01-02T08:22:38.946Z,8.80
2023-01-02T08:25:06.576Z,8.80
2023-01-02T08:27:33.935Z,8.80
2023-01-02T08:30:00.981Z,8.80
2023-01-02T08:32:27.901Z,8.90
2023-01-02T08:34:54.811Z,8.80
2023-01-02T08:37:24.790Z,8.80
2023-01-02T08:39:54.206Z,8.80
2023-01-02T08:42:21.451Z,8.80
2023-01-02T08:44:48.412Z,8.80
2023-01-02T08:47:15.403Z,8.80
2023-01-02T08:49:44.928Z,8.70
2023-01-02T08:52:14.368Z,8.80
2023-01-02T08:54:41.760Z,8.80
2023-01-02T08:57:08.701Z,8.80
2023-01-02T08:59:35.661Z,8.70
2023-01-02T09:02:02.692Z,8.70
2023-01-02T09:04:29.699Z,8.70
2023-01-02T09:06:56.614Z,8.70
2023-01-02T09:09:23.534Z,8.70
2023-01-02T09:11:52.224Z,8.70
2023-01-02T09:14:20.498Z,8.80
2023-01-02T09:16:47.814Z,8.80
2023-01-02T09:19:14.768Z,8.70
2023-01-02T09:21:41.825Z,8.70
2023-01-02T09:24:09.003Z,8.80
2023-01-02T09:26:38.102Z,8.80
2023-01-02T09:29:05.410Z,8.70
2023-01-02T09:31:32.531Z,8.70
2023-01-02T09:33:59.609Z,8.70
2023-01-02T09:36:26.941Z,8.80
2023-01-02T09:38:59.704Z,8.90
2023-01-02T09:41:30.851Z,8.90
2023-01-02T09:44:37.553Z,8.90
2023-01-02T09:47:24.214Z,8.80
2023-01-02T09:50:01.860Z,8.90
2023-01-02T09:52:35.078Z,9.00
2023-01-02T09:55:03.557Z,8.90
2023-01-02T09:57:37.974Z,9.00
2023-01-02T10:00:20.026Z,8.90
2023-01-02T10:03:31.152Z,8.90
2023-01-02T10:06:18.890Z,8.80
2023-01-02T10:09:18.993Z,8.90
2023-01-02T10:12:19.625Z,8.80
2023-01-02T10:15:27.382Z,8.80
2023-01-02T10:18:00.703Z,8.90
2023-01-02T10:20:40.668Z,8.80
2023-01-02T10:23:13.695Z,8.80
2023-01-02T10:25:49.552Z,8.80
2023-01-02T10:28:46.130Z,8.80
2023-01-02T10:31:33.444Z,8.80
2023-01-02T10:34:02.898Z,8.80
2023-01-02T10:36:35.084Z,8.80
2023-01-02T10:39:08.716Z,8.90
2023-01-02T10:41:36.017Z,8.80
2023-01-02T10:44:07.526Z,8.90
2023-01-02T10:46:38.968Z,8.90
2023-01-02T10:49:08.808Z,8.90
2023-01-02T10:51:38.776Z,8.90
2023-01-02T10:54:08.297Z,9.00
2023-01-02T10:56:40.088Z,9.00
2023-01-02T10:59:22.288Z,9.00
2023-01-02T11:01:57.015Z,9.00
2023-01-02T11:04:26.632Z,9.00
2023-01-02T11:07:04.012Z,9.00
2023-01-02T11:09:35.947Z,9.00
2023-01-02T11:12:11.653Z,9.00
2023-01-02T11:14:39.253Z,9.10
2023-01-02T11:17:13.062Z,9.20
2023-01-02T11:19:50.791Z,9.10
2023-01-02T11:22:32.227Z,9.20
2023-01-02T11:25:04.310Z,9.10
2023-01-02T11:27:36.479Z,9.10
2023-01-02T11:30:05.156Z,9.00
2023-01-02T11:32:40.355Z,9.10
2023-01-02T11:35:46.074Z,9.10
2023-01-02T11:38:23.194Z,9.10
2023-01-02T11:41:02.280Z,9.10
2023-01-02T11:43:49.315Z,9.10
2023-01-02T11:46:45.547Z,9.20
2023-01-02T11:49:14.655Z,9.10
2023-01-02T11:51:41.904Z,9.20
2023-01-02T11:54:19.703Z,9.20
2023-01-02T11:56:46.682Z,9.20
2023-01-02T11:59:18.511Z,9.20
2023-01-02T12:02:00.808Z,9.20
2023-01-02T12:04:28.525Z,9.20
2023-01-02T12:07:22.949Z,9.20
2023-01-02T12:10:01.501Z,9.20
2023-01-02T12:12:31.516Z,9.20
2023-01-02T12:15:07.253Z,9.20
2023-01-02T12:17:53.421Z,9.20
2023-01-02T12:20:31.919Z,9.20
2023-01-02T12:23:28.906Z,9.20
2023-01-02T12:26:09.084Z,9.20
2023-01-02T12:29:09.751Z,9.30
2023-01-02T12:31:55.375Z,9.20
2023-01-02T12:34:41.111Z,9.30
2023-01-02T12:37:16.818Z,9.30
2023-01-02T12:39:53.119Z,9.30
2023-01-02T12:42:25.482Z,9.30
2023-01-02T12:44:56.602Z,9.30
2023-01-02T12:47:42.978Z,9.40
2023-01-02T12:50:25.697Z,9.30
2023-01-02T12:53:12.951Z,9.30
2023-01-02T12:56:07.547Z,9.30
2023-01-02T12:59:03.389Z,9.40
2023-01-02T13:02:01.694Z,9.30
2023-01-02T13:04:44.840Z,9.40
2023-01-02T13:07:30.496Z,9.50
2023-01-02T13:09:57.937Z,9.40
2023-01-02T13:12:25.869Z,9.40
2023-01-02T13:15:13.312Z,9.40
2023-01-02T13:18:21.989Z,9.40
2023-01-02T13:20:58.668Z,9.40
2023-01-02T13:23:34.825Z,9.40
2023-01-02T13:26:08.445Z,9.40
2023-01-02T13:29:06.739Z,9.40
2023-01-02T13:31:46.405Z,9.40
2023-01-02T13:34:15.938Z,9.40
2023-01-02T13:36:49.487Z,9.40
2023-01-02T13:39:23.614Z,9.40
2023-01-02T13:42:14.105Z,9.40
2023-01-02T13:44:43.234Z,9.40
2023-01-02T13:47:23.604Z,9.40
2023-01-02T13:50:02.407Z,9.40
2023-01-02T13:52:29.281Z,9.40
2023-01-02T13:55:28.711Z,9.40
2023-01-02T13:58:22.790Z,9.40
2023-01-02T14:00:54.477Z,9.40
2023-01-02T14:03:25.176Z,9.40
2023-01-02T14:05:59.394Z,9.40
2023-01-02T14:08:32.031Z,9.30
2023-01-02T14:11:15.406Z,9.30
2023-01-02T14:13:43.091Z,9.30
2023-01-02T14:16:23.608Z,9.30
2023-01-02T14:19:04.360Z,9.30
2023-01-02T14:21:39.700Z,9.20
2023-01-02T14:24:17.353Z,9.10
2023-01-02T14:26:56.361Z,9.10
2023-01-02T14:29:23.957Z,9.10
2023-01-02T14:31:58.494Z,9.10
2023-01-02T14:34:25.832Z,9.00
2023-01-02T14:36:53.118Z,8.90
2023-01-02T14:39:33.620Z,8.90
2023-01-02T14:42:29.285Z,8.90
2023-01-02T14:44:59.648Z,8.90
2023-01-02T14:47:45.289Z,8.90
2023-01-02T14:50:18.523Z,8.80
2023-01-02T14:52:49.767Z,8.80
2023-01-02T14:55:24.193Z,8.80
2023-01-02T14:57:52.239Z,8.70
2023-01-02T15:00:27.094Z,8.70
2023-01-02T15:03:07.815Z,8.70
2023-01-02T15:05:37.565Z,8.60
2023-01-02T15:08:05.374Z,8.60
2023-01-02T15:10:32.289Z,8.60
2023-01-02T15:13:05.147Z,8.70
2023-01-02T15:15:41.767Z,8.70
2023-01-02T15:18:29.471Z,8.70
2023-01-02T15:21:10.575Z,8.80
2023-01-02T15:23:38.345Z,8.80
2023-01-02T15:26:32.985Z,8.90
2023-01-02T15:29:06.995Z,8.70
2023-01-02T15:31:34.169Z,8.80
2023-01-02T15:34:01.509Z,8.70
2023-01-02T15:36:36.836Z,8.70
2023-01-02T15:39:18.780Z,8.70
2023-01-02T15:41:52.931Z,8.70
2023-01-02T15:45:06.659Z,8.70
2023-01-02T15:47:33.822Z,8.90
2023-01-02T15:50:00.973Z,8.80
2023-01-02T15:52:30.953Z,8.70
2023-01-02T15:54:58.285Z,8.70
2023-01-02T15:57:29.122Z,8.60
2023-01-02T15:59:56.581Z,8.70
2023-01-02T16:02:46.412Z,8.60
2023-01-02T16:05:16.896Z,8.60
2023-01-02T16:07:53.459Z,8.50
2023-01-02T16:10:24.686Z,8.50
2023-01-02T16:12:57.561Z,8.50
2023-01-02T16:15:28.667Z,8.30
2023-01-02T16:17:56.756Z,8.20
2023-01-02T16:20:26.049Z,8.20
2023-01-02T16:22:58.502Z,8.20
2023-01-02T16:25:34.169Z,8.20
2023-01-02T16:28:35.999Z,8.10
2023-01-02T16:31:13.219Z,8.00
2023-01-02T16:33:41.984Z,8.00
2023-01-02T16:36:24.818Z,8.00
2023-01-02T16:38:55.890Z,8.00
2023-01-02T16:41:37.555Z,7.90
2023-01-02T16:44:14.760Z,8.00
2023-01-02T16:46:44.256Z,7.90
2023-01-02T16:49:15.767Z,7.90
2023-01-02T16:51:45.350Z,7.80
2023-01-02T16:54:16.609Z,7.70
2023-01-02T16:56:43.627Z,7.60
2023-01-02T16:59:10.833Z,7.60
2023-01-02T17:01:37.947Z,7.60
2023-01-02T17:04:05.152Z,7.50
2023-01-02T17:06:32.140Z,7.50
2023-01-02T17:08:59.163Z,7.50
2023-01-02T17:11:26.267Z,7.50
2023-01-02T17:13:53.387Z,7.40
2023-01-02T17:16:20.698Z,7.50
2023-01-02T17:18:47.721Z,7.40
2023-01-02T17:21:14.863Z,7.40
2023-01-02T17:23:41.924Z,7.40
2023-01-02T17:26:08.944Z,7.40
2023-01-02T17:28:36.811Z,7.40
2023-01-02T17:31:03.828Z,7.30
2023-01-02T17:33:30.835Z,7.20
2023-01-02T17:35:58.287Z,7.10
2023-01-02T17:38:25.425Z,7.10
2023-01-02T17:40:58.221Z,7.10
2023-01-02T17:43:26.429Z,7.00
2023-01-02T17:45:53.702Z,7.00
2023-01-02T17:48:24.661Z,7.00
2023-01-02T17:50:52.981Z,7.00
2023-01-02T17:53:20.031Z,7.00
2023-01-02T17:56:20.639Z,7.00
2023-01-02T17:58:41.085Z,6.90
2023-01-02T18:01:13.015Z,6.90
2023-01-02T18:03:40.066Z,6.90
2023-01-02T18:06:07.299Z,6.90
2023-01-02T18:08:34.377Z,6.90
2023-01-02T18:11:09.331Z,6.80
2023-01-02T18:13:48.969Z,6.80
2023-01-02T18:16:22.979Z,6.90
2023-01-02T18:18:50.886Z,6.90
2023-01-02T18:21:22.809Z,6.80
2023-01-02T18:23:54.791Z,6.80
2023-01-02T18:26:25.031Z,6.80
2023-01-02T18:29:02.884Z,6.80
2023-01-02T18:31:41.328Z,6.70
2023-01-02T18:34:46.904Z,6.70
2023-01-02T18:37:26.337Z,6.60
2023-01-02T18:39:55.008Z,6.60
2023-01-02T18:42:33.557Z,6.60
2023-01-02T18:45:00.972Z,6.50
2023-01-02T18:47:34.576Z,6.50
2023-01-02T18:50:31.390Z,6.50
2023-01-02T18:52:58.359Z,6.40
2023-01-02T18:55:34.074Z,6.50
2023-01-02T18:58:19.533Z,6.40
2023-01-02T19:00:46.637Z,6.40
2023-01-02T19:03:27.251Z,6.40
2023-01-02T19:05:55.049Z,6.30
2023-01-02T19:08:43.714Z,6.40
2023-01-02T19:11:37.259Z,6.30
2023-01-02T19:14:23.748Z,6.20
2023-01-02T19:17:23.984Z,6.20
2023-01-02T19:19:51.637Z,6.20
2023-01-02T19:22:33.020Z,6.20
2023-01-02T19:25:08.921Z,6.10
2023-01-02T19:27:39.412Z,6.10
2023-01-02T19:30:30.552Z,6.10
2023-01-02T19:32:57.973Z,6.20
2023-01-02T19:35:24.835Z,6.20
2023-01-02T19:37:52.224Z,6.20
2023-01-02T19:40:22.188Z,6.20
2023-01-02T19:42:51.786Z,6.20
2023-01-02T19:45:26.778Z,6.20
2023-01-02T19:47:54.313Z,6.20
2023-01-02T19:50:24.896Z,6.20
2023-01-02T19:52:52.428Z,6.20
2023-01-02T19:55:19.833Z,6.20
2023-01-02T19:57:47.399Z,6.10
2023-01-02T20:00:16.971Z,6.10
2023-01-02T20:02:45.880Z,6.00
2023-01-02T20:05:20.819Z,6.10
2023-01-02T20:07:49.150Z,6.10
2023-01-02T20:10:16.250Z,6.00
2023-01-02T20:12:43.416Z,6.00
2023-01-02T20:15:25.832Z,6.00
2023-01-02T20:17:54.001Z,6.10
2023-01-02T20:20:24.676Z,6.10
2023-01-02T20:22:52.422Z,6.10
2023-01-02T20:25:23.944Z,6.10
2023-01-02T20:27:52.044Z,6.10
2023-01-02T20:30:24.203Z,6.10
2023-01-02T20:32:51.916Z,6.00
2023-01-02T20:35:19.013Z,6.00
2023-01-02T20:37:46.050Z,6.00
2023-01-02T20:40:16.677Z,5.90
2023-01-02T20:42:43.784Z,5.90
2023-01-02T20:45:11.858Z,5.90
2023-01-02T20:47:38.840Z,5.80
2023-01-02T20:50:06.575Z,5.90
2023-01-02T20:52:33.566Z,5.80
2023-01-02T20:55:00.684Z,5.80
2023-01-02T20:57:29.310Z,5.90
2023-01-02T20:59:56.454Z,5.80
2023-01-02T21:02:23.837Z,5.70
2023-01-02T21:04:50.999Z,5.90
2023-01-02T21:07:17.983Z,5.70
2023-01-02T21:09:44.993Z,5.70
2023-01-02T21:12:31.998Z,5.60
2023-01-02T21:14:58.987Z,5.60
2023-01-02T21:17:25.973Z,5.70
2023-01-02T21:19:52.953Z,5.70
2023-01-02T21:22:19.977Z,5.70
2023-01-02T21:24:46.956Z,5.70
2023-01-02T21:27:14.036Z,5.80
2023-01-02T21:29:41.490Z,5.80
2023-01-02T21:32:08.539Z,5.80
2023-01-02T21:34:35.588Z,5.80
2023-01-02T21:37:02.685Z,5.80
2023-01-02T21:39:29.719Z,5.70
2023-01-02T21:42:15.606Z,5.70
2023-01-02T21:44:43.765Z,5.70
2023-01-02T21:47:10.791Z,5.70
2023-01-02T21:49:37.803Z,5.70
2023-01-02T21:52:05.204Z,5.70
2023-01-02T21:54:32.215Z,5.70
2023-01-02T21:56:59.315Z,5.80
2023-01-02T21:59:26.621Z,5.70
2023-01-02T22:01:54.919Z,5.40
2023-01-02T22:04:23.161Z,5.30
2023-01-02T22:07:29.947Z,5.40
2023-01-02T22:09:38.100Z,5.30
2023-01-02T22:12:07.303Z,5.50
2023-01-02T22:14:37.158Z,5.40
2023-01-02T22:17:11.070Z,5.40
2023-01-02T22:19:38.416Z,5.20
2023-01-02T22:22:05.779Z,5.10
2023-01-02T22:24:33.991Z,5.20
2023-01-02T22:27:04.665Z,5.30
2023-01-02T22:30:09.530Z,5.10
2023-01-02T22:32:20.062Z,5.10
2023-01-02T22:34:47.428Z,5.00
2023-01-02T22:37:22.134Z,4.80
2023-01-02T22:39:49.852Z,4.80
2023-01-02T22:43:03.865Z,4.80
2023-01-02T22:45:43.161Z,4.90
2023-01-02T22:48:20.652Z,5.00
2023-01-02T22:50:53.243Z,5.10
2023-01-02T22:53:23.359Z,5.00
2023-01-02T22:55:50.848Z,4.90
2023-01-02T22:58:18.559Z,5.10
2023-01-02T23:00:56.952Z,5.00
2023-01-02T23:03:24.102Z,4.80
2023-01-02T23:05:51.201Z,5.00
2023-01-02T23:08:18.248Z,5.00
2023-01-02T23:10:45.288Z,4.90
2023-01-02T23:13:15.381Z,4.90
2023-01-02T23:16:01.449Z,4.80
2023-01-02T23:18:53.036Z,4.60
2023-01-02T23:21:25.442Z,4.70
2023-01-02T23:23:52.811Z,4.80
2023-01-02T23:26:20.653Z,4.80
2023-01-02T23:31:37.114Z,4.80
2023-01-02T23:34:04.271Z,4.70
2023-01-02T23:36:31.399Z,4.70
2023-01-02T23:38:58.368Z,4.80
2023-01-02T23:41:25.391Z,4.70
2023-01-02T23:43:52.618Z,4.50
2023-01-02T23:46:19.839Z,4.60
2023-01-02T23:48:46.915Z,4.50
2023-01-02T23:51:13.912Z,4.70
2023-01-02T23:53:42.166Z,4.60
2023-01-02T23:56:22.808Z,4.60
2023-01-02T23:58:53.140Z,4.50
